Time;durP1;ratioP1;P1;durP2;ratioP2;P2;SDS_P1;SDS_P2;PMS_P1;PMS_P2;Temp;Humidity;BMP_temperature;BMP_pressure;BME280_temperature;BME280_humidity;BME280_pressure;Samples;Min_cycle;Max_cycle;Signal;HPM_P1;HPM_P2
2022/08/12 00:44:04;;;;;;;;;;;25.40;96.60;;;;;;5073129;28;19919;-76
2022/08/12 00:46:37;;;;;;;;;;;25.50;96.50;;;;;;5073240;28;19916;-77
2022/08/12 00:49:02;;;;;;;;;;;25.50;96.60;;;;;;5073452;28;19932;-77
2022/08/12 00:54:13;;;;;;;;;;;25.50;96.70;;;;;;5073217;28;19956;-76
2022/08/12 00:56:38;;;;;;;;;;;25.50;96.40;;;;;;5073350;28;19908;-76
2022/08/12 00:59:04;;;;;;;;;;;25.60;96.40;;;;;;5073671;28;19908;-76
2022/08/12 01:01:32;;;;;;;;;;;25.50;96.20;;;;;;5074012;28;19908;-76
2022/08/12 01:12:11;;;;;;;;;;;25.20;96.90;;;;;;5073365;28;20365;-77
2022/08/12 01:14:36;;;;;;;;;;;25.10;96.70;;;;;;5073390;28;19912;-76
2022/08/12 01:17:02;;;;;;;;;;;25.10;96.70;;;;;;5055852;28;20425;-76
2022/08/12 01:19:28;;;;;;;;;;;24.90;96.70;;;;;;5073159;28;20362;-76
2022/08/12 01:22:08;;;;;;;;;;;24.90;96.70;;;;;;5072663;28;19920;-76
2022/08/12 01:24:48;;;;;;;;;;;25.00;97.30;;;;;;5072261;28;19920;-75
2022/08/12 01:27:14;;;;;;;;;;;24.80;98.00;;;;;;5072695;28;19913;-76
2022/08/12 01:29:42;;;;;;;;;;;24.60;97.40;;;;;;5072124;28;19915;-77
2022/08/12 01:32:09;;;;;;;;;;;24.70;97.30;;;;;;5072026;28;19988;-76
2022/08/12 01:34:37;;;;;;;;;;;24.80;96.90;;;;;;5071791;28;20258;-76
2022/08/12 01:37:03;;;;;;;;;;;24.80;97.50;;;;;;5071933;28;20246;-75
2022/08/12 01:39:30;;;;;;;;;;;24.70;97.30;;;;;;5072255;28;20281;-75
2022/08/12 01:41:58;;;;;;;;;;;24.60;97.10;;;;;;5072093;28;19909;-75
2022/08/12 01:44:25;;;;;;;;;;;24.50;97.30;;;;;;5072365;28;19912;-76
2022/08/12 01:46:52;;;;;;;;;;;24.70;97.50;;;;;;5073541;28;19912;-76
2022/08/12 01:49:26;;;;;;;;;;;24.60;97.70;;;;;;5072868;28;20029;-75
2022/08/12 01:52:00;;;;;;;;;;;24.70;97.10;;;;;;5054227;28;19952;-75
2022/08/12 01:54:27;;;;;;;;;;;24.60;97.20;;;;;;5072736;28;20059;-75
2022/08/12 01:57:23;;;;;;;;;;;24.50;98.70;;;;;;5072587;28;19970;-77
2022/08/12 02:00:14;;;;;;;;;;;24.60;98.70;;;;;;5050105;28;19908;-76
2022/08/12 02:02:40;;;;;;;;;;;24.60;98.30;;;;;;5071380;28;19931;-76
2022/08/12 02:11:17;;;;;;;;;;;24.40;98.20;;;;;;5091379;28;19999;-76
2022/08/12 02:14:02;;;;;;;;;;;24.30;98.20;;;;;;5085843;28;19958;-76
2022/08/12 02:16:45;;;;;;;;;;;24.20;98.20;;;;;;5087685;28;19909;-75
2022/08/12 02:19:30;;;;;;;;;;;24.10;98.60;;;;;;5088133;28;19897;-75
2022/08/12 02:22:14;;;;;;;;;;;24.10;98.70;;;;;;5080232;28;20338;-77
2022/08/12 02:24:41;;;;;;;;;;;24.10;98.70;;;;;;5078336;28;19908;-76
2022/08/12 02:27:07;;;;;;;;;;;24.20;99.30;;;;;;5059361;28;19909;-76
2022/08/12 02:29:34;;;;;;;;;;;24.30;99.50;;;;;;5075448;28;19909;-76
2022/08/12 02:32:00;;;;;;;;;;;24.40;99.20;;;;;;5075511;28;20057;-75
2022/08/12 02:34:27;;;;;;;;;;;24.40;99.60;;;;;;5074997;28;20424;-76
2022/08/12 02:36:55;;;;;;;;;;;24.50;99.50;;;;;;5072912;28;20002;-75
2022/08/12 02:39:22;;;;;;;;;;;24.60;99.60;;;;;;5060082;28;20360;-75
2022/08/12 02:41:50;;;;;;;;;;;24.60;98.10;;;;;;5085205;28;19913;-76
2022/08/12 02:44:18;;;;;;;;;;;24.60;98.30;;;;;;5085548;28;19919;-75
2022/08/12 02:46:47;;;;;;;;;;;24.50;98.70;;;;;;5085478;28;20063;-75
2022/08/12 02:49:30;;;;;;;;;;;24.50;98.70;;;;;;5086084;28;19908;-76
2022/08/12 02:51:57;;;;;;;;;;;24.40;99.00;;;;;;5085216;28;19908;-76
2022/08/12 02:54:23;;;;;;;;;;;24.80;99.00;;;;;;5086368;28;19939;-75
2022/08/12 02:56:50;;;;;;;;;;;24.90;98.60;;;;;;5087837;28;19916;-76
2022/08/12 02:59:18;;;;;;;;;;;25.00;99.00;;;;;;5071947;28;19923;-76
2022/08/12 03:01:58;;;;;;;;;;;25.00;98.70;;;;;;5071269;28;19944;-77
2022/08/12 03:04:30;;;;;;;;;;;25.10;98.20;;;;;;5071180;28;19916;-77
2022/08/12 03:07:16;;;;;;;;;;;25.00;98.50;;;;;;5053291;28;19946;-76
2022/08/12 03:09:48;;;;;;;;;;;25.00;98.50;;;;;;5054093;28;19915;-76
2022/08/12 03:12:14;;;;;;;;;;;25.10;98.10;;;;;;5071416;28;19913;-76
2022/08/12 03:14:41;;;;;;;;;;;25.20;98.00;;;;;;5070866;28;20314;-76
2022/08/12 03:17:16;;;;;;;;;;;24.90;98.30;;;;;;5071380;28;20298;-77
2022/08/12 03:19:44;;;;;;;;;;;24.60;98.90;;;;;;5086688;28;20050;-76
2022/08/12 03:22:13;;;;;;;;;;;24.50;99.10;;;;;;5071282;28;19916;-77
2022/08/12 03:24:41;;;;;;;;;;;24.30;99.20;;;;;;5070954;28;19963;-75
2022/08/12 03:27:08;;;;;;;;;;;24.40;98.70;;;;;;5086193;28;19920;-76
2022/08/12 03:29:35;;;;;;;;;;;24.20;98.90;;;;;;5086308;28;19978;-76
2022/08/12 03:32:01;;;;;;;;;;;24.10;99.10;;;;;;5070970;28;20392;-76
2022/08/12 03:34:29;;;;;;;;;;;24.00;99.30;;;;;;5070833;28;20003;-76
2022/08/12 03:36:55;;;;;;;;;;;24.20;99.00;;;;;;5070948;28;19908;-75
2022/08/12 03:39:33;;;;;;;;;;;24.30;98.90;;;;;;5070947;28;19909;-75
2022/08/12 03:42:11;;;;;;;;;;;24.30;99.00;;;;;;5074247;28;20231;-77
2022/08/12 04:01:21;;;;;;;;;;;24.20;99.40;;;;;;5074234;28;20286;-75
2022/08/12 04:03:51;;;;;;;;;;;24.00;99.60;;;;;;5074511;28;20247;-77
2022/08/12 04:06:20;;;;;;;;;;;23.90;99.70;;;;;;5089407;28;19979;-76
2022/08/12 04:08:56;;;;;;;;;;;23.70;99.90;;;;;;5089686;28;20011;-75
2022/08/12 04:14:07;;;;;;;;;;;23.60;99.90;;;;;;5074183;28;19974;-76
2022/08/12 04:16:33;;;;;;;;;;;23.60;99.90;;;;;;5074509;28;20284;-75
2022/08/12 04:19:00;;;;;;;;;;;23.60;99.90;;;;;;5074275;28;19909;-76
2022/08/12 04:21:26;;;;;;;;;;;23.60;99.90;;;;;;5074016;28;19908;-77
2022/08/12 04:23:53;;;;;;;;;;;23.60;99.90;;;;;;5074177;28;19912;-76
2022/08/12 04:26:19;;;;;;;;;;;23.40;99.90;;;;;;5076686;28;19928;-77
2022/08/12 04:28:44;;;;;;;;;;;23.40;99.90;;;;;;5075679;28;19908;-76
2022/08/12 04:31:11;;;;;;;;;;;23.30;99.90;;;;;;5075446;28;20453;-75
2022/08/12 04:33:39;;;;;;;;;;;23.40;99.90;;;;;;5074172;28;20381;-76
2022/08/12 04:36:05;;;;;;;;;;;23.40;99.90;;;;;;5074719;28;20433;-76
2022/08/12 04:38:30;;;;;;;;;;;23.40;99.90;;;;;;5075710;28;19946;-76
2022/08/12 04:40:56;;;;;;;;;;;23.50;99.90;;;;;;5075441;28;19913;-77
2022/08/12 04:43:24;;;;;;;;;;;23.60;99.90;;;;;;5073945;28;19991;-78
2022/08/12 04:45:50;;;;;;;;;;;23.80;99.90;;;;;;5055572;28;20054;-77
2022/08/12 04:48:16;;;;;;;;;;;23.60;99.90;;;;;;5075222;28;19919;-76
2022/08/12 04:50:42;;;;;;;;;;;23.60;99.90;;;;;;5075149;28;19909;-76
2022/08/12 04:53:08;;;;;;;;;;;23.80;99.90;;;;;;5073843;28;19991;-76
2022/08/12 04:55:35;;;;;;;;;;;23.80;99.90;;;;;;5056895;28;19920;-77
2022/08/12 04:58:01;;;;;;;;;;;23.90;99.90;;;;;;5075269;28;20312;-76
2022/08/12 05:00:27;;;;;;;;;;;24.00;99.90;;;;;;5074778;28;19908;-75
2022/08/12 05:02:52;;;;;;;;;;;23.90;99.90;;;;;;5056430;28;19957;-76
2022/08/12 05:05:19;;;;;;;;;;;24.00;99.90;;;;;;5073811;28;19986;-75
2022/08/12 05:07:48;;;;;;;;;;;23.90;99.90;;;;;;5074393;28;20003;-75
2022/08/12 05:10:15;;;;;;;;;;;23.80;99.90;;;;;;5073166;28;19953;-75
2022/08/12 05:12:41;;;;;;;;;;;23.90;99.90;;;;;;5073188;28;19909;-75
2022/08/12 05:15:07;;;;;;;;;;;23.80;99.90;;;;;;5072744;28;19958;-74
2022/08/12 05:17:33;;;;;;;;;;;23.90;99.90;;;;;;5073499;28;19992;-75
2022/08/12 05:19:59;;;;;;;;;;;23.90;99.90;;;;;;5073426;28;20003;-77
2022/08/12 05:22:25;;;;;;;;;;;23.80;99.90;;;;;;5073326;28;20408;-76
2022/08/12 05:24:51;;;;;;;;;;;24.00;99.90;;;;;;5073072;28;19908;-76
2022/08/12 05:27:17;;;;;;;;;;;24.00;99.90;;;;;;5073519;28;19909;-76
2022/08/12 05:29:48;;;;;;;;;;;24.20;99.90;;;;;;5075489;28;20401;-75
2022/08/12 05:32:19;;;;;;;;;;;24.20;99.90;;;;;;5073830;28;20010;-75
2022/08/12 05:34:47;;;;;;;;;;;24.10;99.90;;;;;;5074113;28;19912;-76
2022/08/12 05:37:13;;;;;;;;;;;24.10;99.90;;;;;;5073619;28;19912;-76
2022/08/12 05:39:39;;;;;;;;;;;24.20;99.90;;;;;;5072534;28;20450;-77
2022/08/12 05:42:05;;;;;;;;;;;24.10;99.90;;;;;;5072477;28;20362;-76
2022/08/12 05:44:30;;;;;;;;;;;24.20;99.90;;;;;;5072377;28;20002;-76
2022/08/12 05:46:57;;;;;;;;;;;24.10;99.90;;;;;;5054133;28;20420;-76
2022/08/12 05:49:23;;;;;;;;;;;24.10;99.90;;;;;;5072376;28;19920;-76
2022/08/12 05:51:48;;;;;;;;;;;24.10;99.90;;;;;;5072372;28;19909;-77
2022/08/12 05:54:15;;;;;;;;;;;24.20;99.90;;;;;;5073527;28;19916;-78
2022/08/12 05:56:40;;;;;;;;;;;24.20;99.90;;;;;;5072204;28;19916;-76
2022/08/12 05:59:07;;;;;;;;;;;24.10;99.90;;;;;;5055424;28;19909;-76
2022/08/12 06:01:33;;;;;;;;;;;24.20;99.90;;;;;;5074186;28;19909;-76
2022/08/12 06:03:59;;;;;;;;;;;24.20;99.90;;;;;;5071909;28;19908;-76
2022/08/12 06:06:24;;;;;;;;;;;24.30;99.90;;;;;;5054222;28;20324;-77
2022/08/12 06:08:52;;;;;;;;;;;24.30;99.90;;;;;;5072458;28;19916;-76
2022/08/12 06:11:21;;;;;;;;;;;24.40;99.90;;;;;;5073524;28;19951;-76
2022/08/12 06:13:47;;;;;;;;;;;24.20;99.90;;;;;;5072705;28;20258;-76
2022/08/12 06:16:15;;;;;;;;;;;24.00;99.90;;;;;;5071843;28;19970;-77
2022/08/12 06:18:41;;;;;;;;;;;24.00;99.90;;;;;;5072216;28;20388;-76
2022/08/12 06:21:07;;;;;;;;;;;24.00;99.90;;;;;;5073532;28;19909;-75
2022/08/12 06:23:33;;;;;;;;;;;24.00;99.90;;;;;;5072331;28;19923;-76
2022/08/12 06:25:59;;;;;;;;;;;24.20;99.90;;;;;;5072072;28;19908;-77
2022/08/12 06:28:25;;;;;;;;;;;24.30;99.90;;;;;;5072445;28;19969;-76
2022/08/12 06:30:52;;;;;;;;;;;24.40;99.90;;;;;;5087679;28;19908;-76
2022/08/12 06:33:17;;;;;;;;;;;24.50;99.90;;;;;;5072332;28;19916;-76
2022/08/12 06:35:43;;;;;;;;;;;24.70;99.90;;;;;;5071764;28;20435;-76
2022/08/12 06:38:14;;;;;;;;;;;24.70;99.90;;;;;;5053992;28;19916;-77
2022/08/12 06:43:25;;;;;;;;;;;24.80;99.90;;;;;;5073473;28;20383;-78
2022/08/12 06:45:52;;;;;;;;;;;24.90;99.70;;;;;;5073035;28;19915;-76
2022/08/12 06:48:18;;;;;;;;;;;25.00;99.50;;;;;;5073550;28;19908;-76
2022/08/12 06:50:44;;;;;;;;;;;24.90;99.50;;;;;;5080030;28;19913;-76
2022/08/12 06:53:10;;;;;;;;;;;24.90;99.40;;;;;;5086017;28;19930;-76
2022/08/12 06:55:38;;;;;;;;;;;25.00;99.50;;;;;;5086132;28;19940;-77
2022/08/12 06:58:04;;;;;;;;;;;25.00;99.50;;;;;;5066171;28;19932;-76
2022/08/12 07:00:32;;;;;;;;;;;25.10;99.50;;;;;;5086246;28;19908;-76
2022/08/12 07:02:58;;;;;;;;;;;25.10;99.20;;;;;;5086987;28;19909;-75
2022/08/12 07:05:24;;;;;;;;;;;25.20;99.20;;;;;;5093853;28;19912;-77
2022/08/12 07:08:01;;;;;;;;;;;25.00;99.20;;;;;;5071412;28;20329;-77
2022/08/12 07:10:28;;;;;;;;;;;25.10;99.30;;;;;;5053715;28;19915;-76
2022/08/12 07:12:53;;;;;;;;;;;25.30;99.20;;;;;;5072086;28;19908;-77
2022/08/12 07:15:23;;;;;;;;;;;25.60;98.90;;;;;;5072539;28;20000;-76
2022/08/12 07:17:50;;;;;;;;;;;25.90;98.80;;;;;;5090554;28;19944;-76
2022/08/12 07:20:16;;;;;;;;;;;26.20;98.30;;;;;;5074937;28;19963;-76
2022/08/12 07:22:42;;;;;;;;;;;26.30;98.10;;;;;;5057361;28;19923;-77
2022/08/12 07:25:49;;;;;;;;;;;26.50;98.20;;;;;;5076816;28;20285;-78
2022/08/12 07:28:02;;;;;;;;;;;26.60;98.20;;;;;;5072312;28;19908;-76
2022/08/12 07:30:33;;;;;;;;;;;26.60;98.30;;;;;;5075954;28;19959;-77
2022/08/12 07:33:00;;;;;;;;;;;26.70;98.20;;;;;;5075887;28;19915;-76
2022/08/12 07:35:27;;;;;;;;;;;26.90;98.50;;;;;;5058320;28;19962;-76
2022/08/12 07:37:53;;;;;;;;;;;26.80;98.40;;;;;;5075429;28;19915;-76
2022/08/12 07:40:18;;;;;;;;;;;26.70;98.50;;;;;;5075754;28;20246;-76
2022/08/12 07:42:44;;;;;;;;;;;26.70;98.60;;;;;;5060202;28;19908;-76
2022/08/12 07:45:11;;;;;;;;;;;26.70;98.60;;;;;;5090506;28;19916;-76
2022/08/12 07:47:39;;;;;;;;;;;26.80;98.60;;;;;;5075349;28;19909;-77
2022/08/12 07:50:08;;;;;;;;;;;27.00;98.60;;;;;;5074953;28;20308;-76
2022/08/12 07:52:37;;;;;;;;;;;27.00;98.90;;;;;;5074987;28;19915;-76
2022/08/12 07:55:03;;;;;;;;;;;27.10;98.60;;;;;;5073956;28;19917;-75
2022/08/12 07:57:31;;;;;;;;;;;26.90;98.30;;;;;;5056446;28;20222;-77
2022/08/12 08:00:04;;;;;;;;;;;26.80;98.70;;;;;;5074778;28;19908;-76
2022/08/12 08:02:34;;;;;;;;;;;27.00;98.60;;;;;;5074449;28;20285;-75
2022/08/12 08:05:00;;;;;;;;;;;26.80;98.90;;;;;;5074183;28;20174;-76
2022/08/12 08:07:28;;;;;;;;;;;26.70;98.70;;;;;;5074202;28;19908;-76
2022/08/12 08:09:57;;;;;;;;;;;26.90;98.80;;;;;;5089808;28;19982;-76
2022/08/12 08:15:09;;;;;;;;;;;27.20;98.20;;;;;;5074193;28;19920;-76
2022/08/12 08:17:38;;;;;;;;;;;27.20;98.30;;;;;;5074745;28;20130;-76
2022/08/12 08:20:04;;;;;;;;;;;27.20;98.20;;;;;;5074535;28;19935;-76
2022/08/12 08:22:31;;;;;;;;;;;27.30;98.10;;;;;;5074100;28;19936;-76
2022/08/12 08:24:57;;;;;;;;;;;27.30;97.70;;;;;;5088338;28;19943;-77
2022/08/12 08:27:24;;;;;;;;;;;27.40;97.80;;;;;;5072573;28;20280;-75
2022/08/12 08:29:50;;;;;;;;;;;27.50;97.90;;;;;;5091327;28;20067;-75
2022/08/12 08:32:16;;;;;;;;;;;27.50;97.70;;;;;;5090734;28;19908;-75
2022/08/12 08:34:44;;;;;;;;;;;27.50;97.10;;;;;;5090143;28;19999;-75
2022/08/12 08:37:13;;;;;;;;;;;27.40;97.30;;;;;;5080174;28;19996;-76
2022/08/12 08:39:40;;;;;;;;;;;27.40;97.20;;;;;;5058106;28;19915;-77
2022/08/12 08:45:11;;;;;;;;;;;27.40;96.70;;;;;;5052527;28;19976;-75
2022/08/12 08:47:47;;;;;;;;;;;27.30;96.80;;;;;;5064151;28;19915;-76
2022/08/12 08:50:15;;;;;;;;;;;27.30;97.10;;;;;;5059079;28;19908;-76
2022/08/12 08:52:41;;;;;;;;;;;27.40;97.10;;;;;;5076743;28;20036;-76
2022/08/12 08:55:12;;;;;;;;;;;27.40;97.20;;;;;;5074555;28;19955;-76
2022/08/12 08:57:39;;;;;;;;;;;27.40;97.10;;;;;;5073213;28;19909;-76
2022/08/12 09:00:05;;;;;;;;;;;27.20;96.40;;;;;;5073223;28;19916;-77
2022/08/12 09:02:30;;;;;;;;;;;27.10;97.20;;;;;;5073252;28;19908;-77
2022/08/12 09:04:56;;;;;;;;;;;27.20;97.00;;;;;;5071695;28;19954;-77
2022/08/12 09:07:21;;;;;;;;;;;27.40;97.40;;;;;;5073178;28;19909;-77
2022/08/12 09:09:47;;;;;;;;;;;27.60;96.70;;;;;;5072999;28;19908;-76
2022/08/12 09:14:57;;;;;;;;;;;27.50;96.60;;;;;;5073010;28;20357;-78
2022/08/12 09:17:22;;;;;;;;;;;27.40;96.90;;;;;;5072478;28;19913;-76
2022/08/12 09:19:48;;;;;;;;;;;27.30;96.90;;;;;;5071751;28;20396;-77
2022/08/12 09:22:15;;;;;;;;;;;27.40;97.20;;;;;;5072869;28;19920;-77
2022/08/12 09:24:41;;;;;;;;;;;27.60;97.00;;;;;;5072452;28;20315;-77
2022/08/12 09:27:07;;;;;;;;;;;27.90;96.70;;;;;;5072640;28;19916;-77
2022/08/12 09:29:32;;;;;;;;;;;28.10;96.50;;;;;;5072394;28;19934;-76
2022/08/12 09:31:59;;;;;;;;;;;28.20;95.80;;;;;;5072575;28;19961;-76
2022/08/12 09:34:28;;;;;;;;;;;28.30;96.00;;;;;;5072060;28;19917;-77
2022/08/12 09:36:54;;;;;;;;;;;28.40;96.00;;;;;;5072986;28;20266;-77
2022/08/12 09:39:20;;;;;;;;;;;28.40;95.40;;;;;;5072850;28;20369;-77
2022/08/12 09:45:19;;;;;;;;;;;28.30;95.30;;;;;;5070902;28;19915;-76
2022/08/12 09:47:15;;;;;;;;;;;28.30;95.70;;;;;;5072209;28;19934;-79
2022/08/12 09:49:41;;;;;;;;;;;28.40;94.90;;;;;;5072678;28;20323;-77
2022/08/12 09:52:06;;;;;;;;;;;28.40;95.10;;;;;;5072448;28;19915;-77
2022/08/12 09:54:32;;;;;;;;;;;28.50;95.20;;;;;;5072712;28;19912;-77
2022/08/12 09:56:58;;;;;;;;;;;28.90;94.20;;;;;;5072127;28;19912;-77
2022/08/12 09:59:23;;;;;;;;;;;29.10;93.00;;;;;;5070651;28;19912;-77
2022/08/12 10:01:49;;;;;;;;;;;29.20;92.60;;;;;;5071231;28;19948;-76
2022/08/12 10:04:14;;;;;;;;;;;29.10;93.60;;;;;;5073282;28;19908;-77
2022/08/12 10:06:43;;;;;;;;;;;29.30;93.90;;;;;;5070662;28;19915;-77
2022/08/12 10:09:09;;;;;;;;;;;29.50;93.10;;;;;;5072430;28;19993;-77
2022/08/12 10:14:19;;;;;;;;;;;29.20;93.50;;;;;;5072047;28;19971;-77
2022/08/12 10:16:45;;;;;;;;;;;28.90;93.60;;;;;;5072188;28;19908;-77
2022/08/12 10:19:15;;;;;;;;;;;28.90;93.90;;;;;;5071797;28;19916;-76
2022/08/12 10:21:40;;;;;;;;;;;28.90;93.70;;;;;;5053650;28;20094;-77
2022/08/12 10:24:07;;;;;;;;;;;28.90;93.80;;;;;;5053680;28;19916;-77
2022/08/12 10:29:38;;;;;;;;;;;29.00;93.40;;;;;;5071962;28;19916;-76
2022/08/12 10:32:07;;;;;;;;;;;29.10;93.70;;;;;;5072206;28;20381;-76
2022/08/12 10:34:33;;;;;;;;;;;29.20;93.50;;;;;;5072178;28;19924;-76
2022/08/12 10:37:00;;;;;;;;;;;29.20;93.50;;;;;;5072332;28;19908;-76
2022/08/12 10:39:35;;;;;;;;;;;29.10;93.90;;;;;;5073678;28;20410;-77
2022/08/12 10:44:47;;;;;;;;;;;28.90;93.20;;;;;;5073918;28;19920;-78
2022/08/12 10:47:15;;;;;;;;;;;28.80;92.80;;;;;;5075184;28;20352;-77
2022/08/12 10:49:41;;;;;;;;;;;28.80;92.10;;;;;;5072991;28;19950;-77
2022/08/12 10:52:07;;;;;;;;;;;28.80;91.70;;;;;;5071922;28;19912;-77
2022/08/12 10:54:33;;;;;;;;;;;28.90;92.30;;;;;;5071678;28;19958;-77
2022/08/12 10:56:59;;;;;;;;;;;29.00;92.10;;;;;;5071732;28;19916;-78
2022/08/12 10:59:28;;;;;;;;;;;29.00;92.10;;;;;;5076198;28;19999;-77
2022/08/12 11:01:58;;;;;;;;;;;29.00;91.50;;;;;;5071569;28;19928;-76
2022/08/12 11:04:24;;;;;;;;;;;28.90;92.80;;;;;;5073780;28;19952;-76
2022/08/12 11:06:52;;;;;;;;;;;29.10;91.50;;;;;;5073199;28;19919;-76
2022/08/12 11:09:32;;;;;;;;;;;29.00;91.10;;;;;;5057485;28;19924;-77
2022/08/12 11:11:58;;;;;;;;;;;29.20;92.50;;;;;;5077547;28;19904;-77
2022/08/12 11:14:31;;;;;;;;;;;29.30;91.50;;;;;;5078175;28;20289;-75
2022/08/12 11:16:57;;;;;;;;;;;29.60;91.70;;;;;;5076293;28;19915;-76
2022/08/12 11:19:24;;;;;;;;;;;29.80;91.20;;;;;;5077046;28;20484;-76
2022/08/12 11:21:51;;;;;;;;;;;29.60;90.60;;;;;;5077581;28;19952;-77
2022/08/12 11:24:16;;;;;;;;;;;29.60;91.40;;;;;;5058169;28;20373;-77
2022/08/12 11:26:42;;;;;;;;;;;29.80;91.50;;;;;;5062194;28;19947;-76
2022/08/12 11:29:08;;;;;;;;;;;30.30;92.30;;;;;;5075557;28;19913;-76
2022/08/12 11:31:33;;;;;;;;;;;30.50;92.80;;;;;;5090326;28;20342;-75
2022/08/12 11:33:59;;;;;;;;;;;30.50;94.10;;;;;;5075706;28;20002;-74
2022/08/12 11:36:24;;;;;;;;;;;30.10;96.80;;;;;;5090507;28;20372;-76
2022/08/12 11:38:50;;;;;;;;;;;29.90;97.10;;;;;;5092408;28;19977;-75
2022/08/12 11:41:16;;;;;;;;;;;29.90;97.80;;;;;;5090987;28;19920;-77
2022/08/12 11:43:42;;;;;;;;;;;29.80;99.40;;;;;;5092931;28;19909;-76
2022/08/12 11:46:07;;;;;;;;;;;29.70;99.80;;;;;;5107802;28;19916;-75
2022/08/12 11:48:38;;;;;;;;;;;30.00;99.20;;;;;;5101871;28;19959;-76
2022/08/12 11:51:05;;;;;;;;;;;30.00;97.10;;;;;;5072285;28;19909;-76
2022/08/12 11:53:30;;;;;;;;;;;30.00;96.50;;;;;;5071815;28;19917;-76
2022/08/12 11:55:56;;;;;;;;;;;29.60;97.90;;;;;;5070429;28;20009;-75
2022/08/12 11:58:21;;;;;;;;;;;29.10;97.00;;;;;;5070523;28;20365;-76
2022/08/12 12:00:47;;;;;;;;;;;28.90;96.40;;;;;;5070451;28;19909;-77
2022/08/12 12:03:12;;;;;;;;;;;28.80;96.70;;;;;;5072158;28;20012;-75
2022/08/12 12:05:38;;;;;;;;;;;29.10;98.80;;;;;;5073839;28;19954;-76
2022/08/12 12:08:04;;;;;;;;;;;28.70;98.50;;;;;;5074473;28;19920;-76
2022/08/12 12:10:29;;;;;;;;;;;28.20;99.90;;;;;;5074287;28;20115;-75
2022/08/12 12:12:55;;;;;;;;;;;28.00;99.90;;;;;;5074062;28;20496;-75
2022/08/12 12:15:20;;;;;;;;;;;27.90;99.90;;;;;;5073955;28;19912;-75
2022/08/12 12:17:48;;;;;;;;;;;27.90;99.90;;;;;;5073980;28;19908;-74
2022/08/12 12:20:14;;;;;;;;;;;28.00;99.90;;;;;;5073531;28;19957;-74
2022/08/12 12:22:40;;;;;;;;;;;28.30;99.90;;;;;;5073738;28;19917;-76
2022/08/12 12:25:07;;;;;;;;;;;28.40;99.90;;;;;;5073945;28;19909;-75
2022/08/12 12:27:44;;;;;;;;;;;28.60;99.90;;;;;;5073860;28;20487;-75
2022/08/12 12:30:11;;;;;;;;;;;28.50;99.90;;;;;;5056451;28;20006;-75
2022/08/12 12:32:36;;;;;;;;;;;27.90;99.90;;;;;;5074307;28;20004;-76
2022/08/12 12:35:02;;;;;;;;;;;27.70;99.90;;;;;;5074158;28;20015;-76
2022/08/12 12:37:28;;;;;;;;;;;27.80;99.90;;;;;;5073870;28;20489;-76
2022/08/12 12:39:56;;;;;;;;;;;27.90;99.90;;;;;;5073666;28;19912;-75
2022/08/12 12:42:21;;;;;;;;;;;27.70;99.90;;;;;;5073651;28;19928;-75
2022/08/12 12:44:47;;;;;;;;;;;27.40;99.90;;;;;;5073622;28;20025;-75
2022/08/12 12:47:15;;;;;;;;;;;26.90;99.90;;;;;;5073904;28;19909;-75
2022/08/12 12:49:41;;;;;;;;;;;26.70;99.90;;;;;;5074593;28;19908;-75
2022/08/12 12:52:06;;;;;;;;;;;26.60;99.90;;;;;;5074789;28;19954;-74
2022/08/12 12:54:32;;;;;;;;;;;26.50;99.90;;;;;;5073909;28;19920;-76
2022/08/12 12:56:58;;;;;;;;;;;26.70;99.90;;;;;;5073050;28;20145;-75
2022/08/12 12:59:26;;;;;;;;;;;26.80;99.90;;;;;;5071628;28;19977;-76
2022/08/12 13:01:52;;;;;;;;;;;27.00;99.90;;;;;;5073256;28;20231;-75
2022/08/12 13:04:17;;;;;;;;;;;27.10;98.70;;;;;;5073368;28;19908;-76
2022/08/12 13:06:44;;;;;;;;;;;27.00;97.90;;;;;;5072290;28;19908;-75
2022/08/12 13:09:11;;;;;;;;;;;26.90;98.40;;;;;;5073137;28;19908;-76
2022/08/12 13:11:38;;;;;;;;;;;26.80;98.80;;;;;;5073405;28;19962;-76
2022/08/12 13:14:04;;;;;;;;;;;26.50;99.30;;;;;;5070959;28;19909;-75
2022/08/12 13:16:29;;;;;;;;;;;26.10;99.90;;;;;;5072991;28;20322;-75
2022/08/12 13:18:55;;;;;;;;;;;26.00;99.90;;;;;;5073225;28;19915;-74
2022/08/12 13:21:21;;;;;;;;;;;25.80;99.90;;;;;;5073273;28;19912;-75
2022/08/12 13:23:48;;;;;;;;;;;25.80;99.90;;;;;;5073463;28;20330;-76
2022/08/12 13:26:16;;;;;;;;;;;25.70;99.90;;;;;;5072706;28;19935;-75
2022/08/12 13:28:44;;;;;;;;;;;25.70;99.90;;;;;;5071494;28;20327;-76
2022/08/12 13:31:10;;;;;;;;;;;25.60;99.90;;;;;;5072955;28;20066;-75
2022/08/12 13:33:36;;;;;;;;;;;25.60;99.90;;;;;;5072904;28;19957;-76
2022/08/12 13:36:03;;;;;;;;;;;25.60;99.90;;;;;;5072256;28;19919;-75
2022/08/12 13:38:37;;;;;;;;;;;25.60;99.90;;;;;;5072622;28;19912;-74
2022/08/12 13:41:04;;;;;;;;;;;25.40;99.90;;;;;;5073248;28;19924;-75
2022/08/12 13:43:31;;;;;;;;;;;25.30;99.90;;;;;;5073051;28;19918;-74
2022/08/12 13:45:57;;;;;;;;;;;25.30;99.90;;;;;;5072509;28;19908;-75
2022/08/12 13:48:23;;;;;;;;;;;25.30;99.90;;;;;;5073731;28;19967;-75
2022/08/12 13:50:48;;;;;;;;;;;25.30;99.90;;;;;;5074339;28;19908;-76
2022/08/12 13:53:15;;;;;;;;;;;25.40;99.90;;;;;;5074221;28;19913;-74
2022/08/12 13:55:44;;;;;;;;;;;25.50;99.90;;;;;;5074658;28;19918;-76
2022/08/12 13:58:11;;;;;;;;;;;25.80;99.90;;;;;;5074665;28;19913;-75
2022/08/12 14:00:37;;;;;;;;;;;26.20;99.90;;;;;;5073851;28;19947;-74
2022/08/12 14:03:03;;;;;;;;;;;26.40;99.90;;;;;;5075264;28;20281;-74
2022/08/12 14:05:29;;;;;;;;;;;26.20;99.90;;;;;;5074581;28;19916;-75
2022/08/12 14:07:59;;;;;;;;;;;25.90;99.90;;;;;;5072576;28;19995;-76
2022/08/12 14:10:35;;;;;;;;;;;25.50;99.90;;;;;;5072185;28;19982;-75
2022/08/12 14:13:05;;;;;;;;;;;25.40;99.90;;;;;;5072688;28;19916;-74
2022/08/12 14:15:31;;;;;;;;;;;25.10;99.90;;;;;;5071985;28;20297;-75
2022/08/12 14:18:10;;;;;;;;;;;24.90;99.90;;;;;;5071986;28;20285;-73
2022/08/12 14:20:36;;;;;;;;;;;24.80;99.90;;;;;;5073353;28;19915;-74
2022/08/12 14:23:01;;;;;;;;;;;24.70;99.90;;;;;;5072905;28;20357;-74
2022/08/12 14:25:27;;;;;;;;;;;24.40;99.90;;;;;;5071885;28;19984;-74
2022/08/12 14:27:54;;;;;;;;;;;24.30;99.90;;;;;;5072238;28;20318;-75
2022/08/12 14:30:26;;;;;;;;;;;24.30;99.90;;;;;;5071660;28;19919;-75
2022/08/12 14:32:51;;;;;;;;;;;24.20;99.90;;;;;;5081711;28;19937;-75
2022/08/12 14:35:18;;;;;;;;;;;24.20;99.90;;;;;;5084490;28;20003;-74
2022/08/12 14:37:43;;;;;;;;;;;24.10;99.90;;;;;;5082005;28;20210;-74
2022/08/12 14:40:10;;;;;;;;;;;24.10;99.90;;;;;;5082229;28;20007;-75
2022/08/12 14:42:37;;;;;;;;;;;24.10;99.90;;;;;;5080154;28;20400;-74
2022/08/12 14:45:02;;;;;;;;;;;24.10;99.90;;;;;;5082679;28;19920;-73
2022/08/12 14:47:28;;;;;;;;;;;24.10;99.90;;;;;;5080997;28;19913;-75
2022/08/12 14:49:54;;;;;;;;;;;24.10;99.90;;;;;;5078633;28;19962;-75
2022/08/12 14:52:19;;;;;;;;;;;24.20;99.90;;;;;;5076958;28;19912;-74
2022/08/12 14:54:45;;;;;;;;;;;24.20;99.90;;;;;;5077125;28;19919;-76
2022/08/12 14:57:11;;;;;;;;;;;24.30;99.90;;;;;;5074727;28;19916;-76
2022/08/12 15:02:20;;;;;;;;;;;24.60;99.90;;;;;;5076950;28;19935;-75
2022/08/12 15:04:57;;;;;;;;;;;24.70;99.90;;;;;;5077082;28;19912;-75
2022/08/12 15:07:25;;;;;;;;;;;24.70;99.90;;;;;;5077193;28;19912;-75
2022/08/12 15:09:50;;;;;;;;;;;24.80;99.90;;;;;;5074542;28;20200;-76
2022/08/12 15:12:18;;;;;;;;;;;24.90;99.90;;;;;;5075454;28;20045;-75
2022/08/12 15:14:43;;;;;;;;;;;25.00;99.90;;;;;;5073460;28;20015;-75
2022/08/12 15:17:09;;;;;;;;;;;25.30;99.90;;;;;;5073880;28;20031;-76
2022/08/12 15:19:35;;;;;;;;;;;25.50;99.90;;;;;;5073255;28;20454;-75
2022/08/12 15:22:00;;;;;;;;;;;25.80;99.90;;;;;;5072946;28;19917;-76
2022/08/12 15:24:26;;;;;;;;;;;25.90;99.90;;;;;;5071285;28;19926;-76
2022/08/12 15:26:52;;;;;;;;;;;26.20;99.90;;;;;;5071810;28;19909;-76
2022/08/12 15:29:18;;;;;;;;;;;26.50;99.90;;;;;;5071349;28;20409;-76
2022/08/12 15:31:44;;;;;;;;;;;26.50;99.90;;;;;;5071107;28;19947;-75
2022/08/12 15:34:09;;;;;;;;;;;26.40;99.90;;;;;;5071172;28;19951;-75
2022/08/12 15:36:37;;;;;;;;;;;26.30;99.90;;;;;;5071665;28;19924;-76
2022/08/12 15:39:03;;;;;;;;;;;26.40;99.90;;;;;;5074824;28;20306;-76
2022/08/12 15:41:29;;;;;;;;;;;26.50;99.90;;;;;;5075144;28;19919;-76
2022/08/12 15:43:56;;;;;;;;;;;26.50;99.90;;;;;;5074536;28;19916;-77
2022/08/12 15:46:22;;;;;;;;;;;26.50;99.90;;;;;;5074902;28;20366;-76
2022/08/12 15:48:48;;;;;;;;;;;26.50;99.90;;;;;;5089923;28;20318;-76
2022/08/12 15:51:28;;;;;;;;;;;26.60;99.90;;;;;;5074339;28;19935;-75
2022/08/12 15:54:06;;;;;;;;;;;26.60;99.90;;;;;;5075161;28;19973;-74
2022/08/12 15:56:35;;;;;;;;;;;26.50;99.90;;;;;;5074039;28;19912;-75
2022/08/12 15:59:01;;;;;;;;;;;26.40;99.90;;;;;;5074237;28;19976;-75
2022/08/12 16:01:29;;;;;;;;;;;26.30;99.90;;;;;;5074665;28;20070;-75
2022/08/12 16:03:56;;;;;;;;;;;26.30;99.90;;;;;;5074573;28;20289;-75